Pagina principale
METAR-TAF:

METAR-TAF

Aeroporti :

Genova, Italia

Aeroporto di Genova-Sestri

latitudine: 44-25N, longitudine: 008-51E, altezza: 2 m

Osservazione

Il bollettino è stato emesso 27 minuti fa, alle 18:20 UTC
Vento 4 kt da nord/nord-est
Temperature 17°C
Umidità 77%
Pressione 1023 hPa
Visibilità 10 km o più
nessuna nube inferiore a 1500 m e nessun cumulonembo

METAR: LIMJ 171820Z 02004KT CAVOK 17/13 Q1023

Ora: 20:47 (18:47 UTC)

Previsione

Il bollettino è stato emesso 1 ora e 47 minuti fa, alle 17:00 UTC
Previsione valida dal 17 alle 18 UTC al 18 alle 18 UTC
Vento 5 kt da direzioni variabili
Visibilità 10 km o più
nessuna nube inferiore a 1500 m e nessun cumulonembo

TAF: LIMJ 171700Z 1718/1818 VRB05KT CAVOK

Osservazioni e previsioni meteorologiche di più di 4000 aeroporti (messaggi METAR e TAF).

Le stazioni disponibili sono rappresentate dai dischi gialli e rossi sulla carta.

Puntare il mouse per vedere il nome della stazione.

Clicca sopra per visualizzare le osservazioni e previsioni meteorologiche.

Per cambiare la mappa : fare clic sui pulsanti verdi con una croce nera per ingrandire, il pulsante verde con un trattino per diminuire, o sulla freccia verde per le mappe adiacenti.


METAR-TAF: